sensor_id;sensor_type;location;lat;lon;timestamp;temperature;humidity
9666;DHT22;4871;52.004;5.924;2023-02-28T00:00:00;1.5;78.5
9666;DHT22;4871;52.004;5.924;2023-02-28T00:01:00;1.5;78.2
9666;DHT22;4871;52.004;5.924;2023-02-28T00:02:01;1.5;78.2
9666;DHT22;4871;52.004;5.924;2023-02-28T00:03:00;1.5;78.2
9666;DHT22;4871;52.004;5.924;2023-02-28T00:04:00;1.6;78.1
9666;DHT22;4871;52.004;5.924;2023-02-28T00:05:04;1.5;78.4
9666;DHT22;4871;52.004;5.924;2023-02-28T00:06:01;1.5;78.1
9666;DHT22;4871;52.004;5.924;2023-02-28T00:07:00;1.5;78.3
9666;DHT22;4871;52.004;5.924;2023-02-28T00:08:00;1.6;77.9
9666;DHT22;4871;52.004;5.924;2023-02-28T00:09:00;1.5;78.0
9666;DHT22;4871;52.004;5.924;2023-02-28T00:10:01;1.5;78.1
9666;DHT22;4871;52.004;5.924;2023-02-28T00:11:02;1.6;78.0
9666;DHT22;4871;52.004;5.924;2023-02-28T00:12:03;1.6;78.1
9666;DHT22;4871;52.004;5.924;2023-02-28T00:13:02;1.6;78.3
9666;DHT22;4871;52.004;5.924;2023-02-28T00:14:00;1.6;78.2
9666;DHT22;4871;52.004;5.924;2023-02-28T00:15:00;1.6;78.1
9666;DHT22;4871;52.004;5.924;2023-02-28T00:16:01;1.6;78.1
9666;DHT22;4871;52.004;5.924;2023-02-28T00:17:00;1.6;78.3
9666;DHT22;4871;52.004;5.924;2023-02-28T00:18:00;1.6;78.1
9666;DHT22;4871;52.004;5.924;2023-02-28T00:19:02;1.6;78.2
9666;DHT22;4871;52.004;5.924;2023-02-28T00:20:11;1.6;77.9
9666;DHT22;4871;52.004;5.924;2023-02-28T00:21:00;1.7;77.8
9666;DHT22;4871;52.004;5.924;2023-02-28T00:22:00;1.7;77.9
9666;DHT22;4871;52.004;5.924;2023-02-28T00:23:00;1.7;77.9
9666;DHT22;4871;52.004;5.924;2023-02-28T00:24:00;1.6;78.1
9666;DHT22;4871;52.004;5.924;2023-02-28T00:25:00;1.7;77.8
9666;DHT22;4871;52.004;5.924;2023-02-28T00:26:01;1.7;77.8
9666;DHT22;4871;52.004;5.924;2023-02-28T00:27:00;1.7;77.8
9666;DHT22;4871;52.004;5.924;2023-02-28T00:28:00;1.7;78.1
9666;DHT22;4871;52.004;5.924;2023-02-28T00:29:00;1.7;78.1
9666;DHT22;4871;52.004;5.924;2023-02-28T00:30:01;1.7;78.1
9666;DHT22;4871;52.004;5.924;2023-02-28T00:31:00;1.7;78.1
9666;DHT22;4871;52.004;5.924;2023-02-28T00:32:00;1.7;78.0
9666;DHT22;4871;52.004;5.924;2023-02-28T00:33:00;1.7;78.2
9666;DHT22;4871;52.004;5.924;2023-02-28T00:34:00;1.7;78.1
9666;DHT22;4871;52.004;5.924;2023-02-28T00:35:00;1.7;77.9
9666;DHT22;4871;52.004;5.924;2023-02-28T00:36:01;1.7;78.2
9666;DHT22;4871;52.004;5.924;2023-02-28T00:37:00;1.7;78.1
9666;DHT22;4871;52.004;5.924;2023-02-28T00:38:00;1.7;78.2
9666;DHT22;4871;52.004;5.924;2023-02-28T00:39:00;1.7;78.1
9666;DHT22;4871;52.004;5.924;2023-02-28T00:40:00;1.7;78.2
9666;DHT22;4871;52.004;5.924;2023-02-28T00:41:04;1.7;78.3
9666;DHT22;4871;52.004;5.924;2023-02-28T00:42:00;1.8;78.2
9666;DHT22;4871;52.004;5.924;2023-02-28T00:43:00;1.7;78.1
9666;DHT22;4871;52.004;5.924;2023-02-28T00:44:00;1.7;78.2
9666;DHT22;4871;52.004;5.924;2023-02-28T00:45:00;1.7;78.1
9666;DHT22;4871;52.004;5.924;2023-02-28T00:46:00;1.7;78.2
9666;DHT22;4871;52.004;5.924;2023-02-28T00:47:00;1.7;78.0
9666;DHT22;4871;52.004;5.924;2023-02-28T00:48:00;1.8;78.2
9666;DHT22;4871;52.004;5.924;2023-02-28T00:49:00;1.8;78.4
9666;DHT22;4871;52.004;5.924;2023-02-28T00:50:00;1.8;78.4
9666;DHT22;4871;52.004;5.924;2023-02-28T00:51:00;1.8;78.2
9666;DHT22;4871;52.004;5.924;2023-02-28T00:52:00;1.8;78.2
9666;DHT22;4871;52.004;5.924;2023-02-28T00:53:00;1.8;78.2
9666;DHT22;4871;52.004;5.924;2023-02-28T00:54:00;1.8;78.3
9666;DHT22;4871;52.004;5.924;2023-02-28T00:55:00;1.8;78.3
9666;DHT22;4871;52.004;5.924;2023-02-28T00:56:00;1.8;78.4
9666;DHT22;4871;52.004;5.924;2023-02-28T00:57:00;1.8;78.4
9666;DHT22;4871;52.004;5.924;2023-02-28T00:58:00;1.8;78.5
9666;DHT22;4871;52.004;5.924;2023-02-28T00:59:00;1.8;78.3
9666;DHT22;4871;52.004;5.924;2023-02-28T01:00:00;1.8;78.2
9666;DHT22;4871;52.004;5.924;2023-02-28T01:01:00;1.8;78.3
9666;DHT22;4871;52.004;5.924;2023-02-28T01:02:00;1.8;78.3
9666;DHT22;4871;52.004;5.924;2023-02-28T01:03:00;1.8;78.3
9666;DHT22;4871;52.004;5.924;2023-02-28T01:04:00;1.9;78.3
9666;DHT22;4871;52.004;5.924;2023-02-28T01:05:00;1.9;78.2
9666;DHT22;4871;52.004;5.924;2023-02-28T01:06:00;1.9;78.5
9666;DHT22;4871;52.004;5.924;2023-02-28T01:07:00;1.9;78.4
9666;DHT22;4871;52.004;5.924;2023-02-28T01:08:00;1.8;78.3
9666;DHT22;4871;52.004;5.924;2023-02-28T01:09:00;1.9;78.4
9666;DHT22;4871;52.004;5.924;2023-02-28T01:10:00;1.9;78.3
9666;DHT22;4871;52.004;5.924;2023-02-28T01:11:07;1.9;78.2
9666;DHT22;4871;52.004;5.924;2023-02-28T01:12:00;1.9;78.3
9666;DHT22;4871;52.004;5.924;2023-02-28T01:13:00;1.9;78.3
9666;DHT22;4871;52.004;5.924;2023-02-28T01:14:01;1.9;78.5
9666;DHT22;4871;52.004;5.924;2023-02-28T01:15:00;1.9;78.2
9666;DHT22;4871;52.004;5.924;2023-02-28T01:16:00;1.9;78.1
9666;DHT22;4871;52.004;5.924;2023-02-28T01:17:00;1.9;78.2
9666;DHT22;4871;52.004;5.924;2023-02-28T01:18:00;1.9;78.2
9666;DHT22;4871;52.004;5.924;2023-02-28T01:19:00;1.9;78.4
9666;DHT22;4871;52.004;5.924;2023-02-28T01:20:00;1.9;78.3
9666;DHT22;4871;52.004;5.924;2023-02-28T01:21:03;1.9;78.3
9666;DHT22;4871;52.004;5.924;2023-02-28T01:22:00;2.0;78.2
9666;DHT22;4871;52.004;5.924;2023-02-28T01:23:00;2.0;78.1
9666;DHT22;4871;52.004;5.924;2023-02-28T01:24:00;2.0;78.2
9666;DHT22;4871;52.004;5.924;2023-02-28T01:25:00;1.9;78.3
9666;DHT22;4871;52.004;5.924;2023-02-28T01:26:03;1.9;78.2
9666;DHT22;4871;52.004;5.924;2023-02-28T01:27:00;1.9;78.3
9666;DHT22;4871;52.004;5.924;2023-02-28T01:28:00;1.9;78.2
9666;DHT22;4871;52.004;5.924;2023-02-28T01:29:00;1.9;78.4
9666;DHT22;4871;52.004;5.924;2023-02-28T01:30:00;2.0;78.2
9666;DHT22;4871;52.004;5.924;2023-02-28T01:31:00;2.0;78.1
9666;DHT22;4871;52.004;5.924;2023-02-28T01:32:00;2.0;78.4
9666;DHT22;4871;52.004;5.924;2023-02-28T01:33:00;2.0;78.2
9666;DHT22;4871;52.004;5.924;2023-02-28T01:34:00;2.0;78.4
9666;DHT22;4871;52.004;5.924;2023-02-28T01:35:00;2.0;78.4
9666;DHT22;4871;52.004;5.924;2023-02-28T01:36:01;2.0;78.6
9666;DHT22;4871;52.004;5.924;2023-02-28T01:37:01;2.0;78.2
9666;DHT22;4871;52.004;5.924;2023-02-28T01:38:00;2.0;78.4
9666;DHT22;4871;52.004;5.924;2023-02-28T01:39:00;2.0;78.3
9666;DHT22;4871;52.004;5.924;2023-02-28T01:40:00;2.0;78.2
9666;DHT22;4871;52.004;5.924;2023-02-28T01:41:00;2.0;78.3
9666;DHT22;4871;52.004;5.924;2023-02-28T01:42:00;2.0;78.3
9666;DHT22;4871;52.004;5.924;2023-02-28T01:43:00;2.0;78.4
9666;DHT22;4871;52.004;5.924;2023-02-28T01:45:03;2.0;78.5
9666;DHT22;4871;52.004;5.924;2023-02-28T01:46:00;2.0;78.2
9666;DHT22;4871;52.004;5.924;2023-02-28T01:47:00;2.0;78.2
9666;DHT22;4871;52.004;5.924;2023-02-28T01:48:03;2.0;78.5
9666;DHT22;4871;52.004;5.924;2023-02-28T01:49:05;2.0;78.2
9666;DHT22;4871;52.004;5.924;2023-02-28T01:50:13;2.0;78.2
9666;DHT22;4871;52.004;5.924;2023-02-28T01:51:04;2.0;78.4
9666;DHT22;4871;52.004;5.924;2023-02-28T01:52:00;2.0;78.3
9666;DHT22;4871;52.004;5.924;2023-02-28T01:53:02;2.0;78.2
9666;DHT22;4871;52.004;5.924;2023-02-28T01:54:02;2.0;78.1
9666;DHT22;4871;52.004;5.924;2023-02-28T01:55:02;2.0;78.2
9666;DHT22;4871;52.004;5.924;2023-02-28T01:56:03;2.0;78.2
9666;DHT22;4871;52.004;5.924;2023-02-28T01:57:03;2.0;78.2
9666;DHT22;4871;52.004;5.924;2023-02-28T01:58:02;2.0;78.4
9666;DHT22;4871;52.004;5.924;2023-02-28T01:59:00;2.0;78.2
9666;DHT22;4871;52.004;5.924;2023-02-28T02:00:03;2.1;78.0
9666;DHT22;4871;52.004;5.924;2023-02-28T02:01:03;2.1;78.2
9666;DHT22;4871;52.004;5.924;2023-02-28T02:02:00;2.0;78.1
9666;DHT22;4871;52.004;5.924;2023-02-28T02:03:05;2.1;78.2
9666;DHT22;4871;52.004;5.924;2023-02-28T02:04:02;2.1;78.5
9666;DHT22;4871;52.004;5.924;2023-02-28T02:05:04;2.0;78.3
9666;DHT22;4871;52.004;5.924;2023-02-28T02:06:01;2.1;78.3
9666;DHT22;4871;52.004;5.924;2023-02-28T02:07:00;2.1;78.3
9666;DHT22;4871;52.004;5.924;2023-02-28T02:08:03;2.1;78.2
9666;DHT22;4871;52.004;5.924;2023-02-28T02:09:00;2.1;78.4
9666;DHT22;4871;52.004;5.924;2023-02-28T02:10:02;2.1;78.3
9666;DHT22;4871;52.004;5.924;2023-02-28T02:11:01;2.1;78.3
9666;DHT22;4871;52.004;5.924;2023-02-28T02:12:03;2.1;78.3
9666;DHT22;4871;52.004;5.924;2023-02-28T02:13:14;2.1;78.1
9666;DHT22;4871;52.004;5.924;2023-02-28T02:14:16;2.1;78.2
9666;DHT22;4871;52.004;5.924;2023-02-28T02:15:04;2.1;78.3
9666;DHT22;4871;52.004;5.924;2023-02-28T02:16:06;2.1;78.3
9666;DHT22;4871;52.004;5.924;2023-02-28T02:17:10;2.1;78.5
9666;DHT22;4871;52.004;5.924;2023-02-28T02:18:13;2.1;78.4
9666;DHT22;4871;52.004;5.924;2023-02-28T02:19:14;2.1;78.3
9666;DHT22;4871;52.004;5.924;2023-02-28T02:20:27;2.1;78.3
9666;DHT22;4871;52.004;5.924;2023-02-28T02:22:21;2.2;78.1
9666;DHT22;4871;52.004;5.924;2023-02-28T02:23:29;2.2;78.0
9666;DHT22;4871;52.004;5.924;2023-02-28T02:24:11;2.1;78.2
9666;DHT22;4871;52.004;5.924;2023-02-28T02:25:12;2.1;78.3
9666;DHT22;4871;52.004;5.924;2023-02-28T02:26:12;2.1;78.3
9666;DHT22;4871;52.004;5.924;2023-02-28T02:27:08;2.1;78.2
9666;DHT22;4871;52.004;5.924;2023-02-28T02:28:20;2.1;78.2
9666;DHT22;4871;52.004;5.924;2023-02-28T02:31:16;2.1;78.1
9666;DHT22;4871;52.004;5.924;2023-02-28T02:32:14;2.2;78.3
9666;DHT22;4871;52.004;5.924;2023-02-28T02:33:06;2.2;78.3
9666;DHT22;4871;52.004;5.924;2023-02-28T02:34:23;2.1;78.2
9666;DHT22;4871;52.004;5.924;2023-02-28T02:35:05;2.1;78.2
9666;DHT22;4871;52.004;5.924;2023-02-28T02:36:03;2.2;78.2
9666;DHT22;4871;52.004;5.924;2023-02-28T02:37:08;2.2;78.0
9666;DHT22;4871;52.004;5.924;2023-02-28T02:38:14;2.2;78.1
9666;DHT22;4871;52.004;5.924;2023-02-28T02:39:05;2.2;78.3
9666;DHT22;4871;52.004;5.924;2023-02-28T02:40:12;2.2;78.1
9666;DHT22;4871;52.004;5.924;2023-02-28T02:41:05;2.2;78.2
9666;DHT22;4871;52.004;5.924;2023-02-28T02:42:01;2.2;78.2
9666;DHT22;4871;52.004;5.924;2023-02-28T02:43:02;2.2;78.1
9666;DHT22;4871;52.004;5.924;2023-02-28T02:44:03;2.2;78.3
9666;DHT22;4871;52.004;5.924;2023-02-28T02:45:03;2.2;78.1
9666;DHT22;4871;52.004;5.924;2023-02-28T02:46:04;2.2;78.4
9666;DHT22;4871;52.004;5.924;2023-02-28T02:47:03;2.2;78.3
9666;DHT22;4871;52.004;5.924;2023-02-28T02:48:01;2.2;77.9
9666;DHT22;4871;52.004;5.924;2023-02-28T02:49:02;2.2;78.3
9666;DHT22;4871;52.004;5.924;2023-02-28T02:50:12;2.2;78.1
9666;DHT22;4871;52.004;5.924;2023-02-28T02:51:03;2.2;78.1
9666;DHT22;4871;52.004;5.924;2023-02-28T02:52:03;2.2;78.2
9666;DHT22;4871;52.004;5.924;2023-02-28T02:53:02;2.2;77.8
9666;DHT22;4871;52.004;5.924;2023-02-28T02:54:13;2.2;78.2
9666;DHT22;4871;52.004;5.924;2023-02-28T02:55:02;2.2;78.2
9666;DHT22;4871;52.004;5.924;2023-02-28T02:56:01;2.2;78.1
9666;DHT22;4871;52.004;5.924;2023-02-28T02:57:03;2.2;78.4
9666;DHT22;4871;52.004;5.924;2023-02-28T02:58:02;2.2;78.1
9666;DHT22;4871;52.004;5.924;2023-02-28T02:59:02;2.2;78.0
9666;DHT22;4871;52.004;5.924;2023-02-28T03:00:02;2.2;78.2
9666;DHT22;4871;52.004;5.924;2023-02-28T03:01:02;2.3;78.3
9666;DHT22;4871;52.004;5.924;2023-02-28T03:02:04;2.3;78.1
9666;DHT22;4871;52.004;5.924;2023-02-28T03:03:00;2.3;78.3
9666;DHT22;4871;52.004;5.924;2023-02-28T03:04:04;2.3;78.0
9666;DHT22;4871;52.004;5.924;2023-02-28T03:05:03;2.3;78.2
9666;DHT22;4871;52.004;5.924;2023-02-28T03:06:01;2.3;78.1
9666;DHT22;4871;52.004;5.924;2023-02-28T03:07:00;2.3;78.0
9666;DHT22;4871;52.004;5.924;2023-02-28T03:08:03;2.3;78.1
9666;DHT22;4871;52.004;5.924;2023-02-28T03:09:01;2.3;78.2
9666;DHT22;4871;52.004;5.924;2023-02-28T03:10:01;2.3;78.1
9666;DHT22;4871;52.004;5.924;2023-02-28T03:11:02;2.3;78.3
9666;DHT22;4871;52.004;5.924;2023-02-28T03:12:00;2.2;78.4
9666;DHT22;4871;52.004;5.924;2023-02-28T03:13:19;2.3;78.4
9666;DHT22;4871;52.004;5.924;2023-02-28T03:14:25;2.3;77.9
9666;DHT22;4871;52.004;5.924;2023-02-28T03:15:07;2.2;78.3
9666;DHT22;4871;52.004;5.924;2023-02-28T03:16:13;2.3;78.3
9666;DHT22;4871;52.004;5.924;2023-02-28T03:18:14;2.3;78.3
9666;DHT22;4871;52.004;5.924;2023-02-28T03:19:11;2.3;78.1
9666;DHT22;4871;52.004;5.924;2023-02-28T03:20:13;2.3;78.1
9666;DHT22;4871;52.004;5.924;2023-02-28T03:21:06;2.3;78.1
9666;DHT22;4871;52.004;5.924;2023-02-28T03:22:12;2.3;78.1
9666;DHT22;4871;52.004;5.924;2023-02-28T03:23:08;2.3;78.2
9666;DHT22;4871;52.004;5.924;2023-02-28T03:24:03;2.3;78.2
9666;DHT22;4871;52.004;5.924;2023-02-28T03:25:05;2.3;78.3
9666;DHT22;4871;52.004;5.924;2023-02-28T03:26:12;2.3;78.3
9666;DHT22;4871;52.004;5.924;2023-02-28T03:27:07;2.3;78.5
9666;DHT22;4871;52.004;5.924;2023-02-28T03:28:13;2.3;78.3
9666;DHT22;4871;52.004;5.924;2023-02-28T03:29:04;2.3;77.9
9666;DHT22;4871;52.004;5.924;2023-02-28T03:30:03;2.3;78.1
9666;DHT22;4871;52.004;5.924;2023-02-28T03:31:03;2.3;78.3
9666;DHT22;4871;52.004;5.924;2023-02-28T03:32:05;2.3;78.2
9666;DHT22;4871;52.004;5.924;2023-02-28T03:33:04;2.3;78.2
9666;DHT22;4871;52.004;5.924;2023-02-28T03:34:04;2.4;78.2
9666;DHT22;4871;52.004;5.924;2023-02-28T03:35:03;2.3;78.1
9666;DHT22;4871;52.004;5.924;2023-02-28T03:36:04;2.3;78.3
9666;DHT22;4871;52.004;5.924;2023-02-28T03:37:04;2.3;78.4
9666;DHT22;4871;52.004;5.924;2023-02-28T03:38:13;2.3;78.3
9666;DHT22;4871;52.004;5.924;2023-02-28T03:39:04;2.3;78.2
9666;DHT22;4871;52.004;5.924;2023-02-28T03:40:02;2.4;78.1
9666;DHT22;4871;52.004;5.924;2023-02-28T03:41:05;2.4;78.3
9666;DHT22;4871;52.004;5.924;2023-02-28T03:42:02;2.4;78.1
9666;DHT22;4871;52.004;5.924;2023-02-28T03:43:03;2.4;78.2
9666;DHT22;4871;52.004;5.924;2023-02-28T03:44:03;2.4;78.1
9666;DHT22;4871;52.004;5.924;2023-02-28T03:45:02;2.4;78.3
9666;DHT22;4871;52.004;5.924;2023-02-28T03:46:02;2.4;78.3
9666;DHT22;4871;52.004;5.924;2023-02-28T03:47:04;2.4;78.2
9666;DHT22;4871;52.004;5.924;2023-02-28T03:48:02;2.4;78.3
9666;DHT22;4871;52.004;5.924;2023-02-28T03:49:02;2.4;78.1
9666;DHT22;4871;52.004;5.924;2023-02-28T03:50:04;2.4;78.2
9666;DHT22;4871;52.004;5.924;2023-02-28T03:51:02;2.4;78.3
9666;DHT22;4871;52.004;5.924;2023-02-28T03:52:02;2.4;78.2
9666;DHT22;4871;52.004;5.924;2023-02-28T03:53:04;2.4;78.1
9666;DHT22;4871;52.004;5.924;2023-02-28T03:54:04;2.4;78.3
9666;DHT22;4871;52.004;5.924;2023-02-28T03:55:06;2.4;78.2
9666;DHT22;4871;52.004;5.924;2023-02-28T03:56:04;2.4;78.1
9666;DHT22;4871;52.004;5.924;2023-02-28T03:57:05;2.4;78.2
9666;DHT22;4871;52.004;5.924;2023-02-28T03:58:04;2.4;78.3
9666;DHT22;4871;52.004;5.924;2023-02-28T03:59:02;2.4;78.2
9666;DHT22;4871;52.004;5.924;2023-02-28T04:00:04;2.4;78.3
9666;DHT22;4871;52.004;5.924;2023-02-28T04:01:05;2.4;78.4
9666;DHT22;4871;52.004;5.924;2023-02-28T04:02:00;2.4;78.2
9666;DHT22;4871;52.004;5.924;2023-02-28T04:03:00;2.4;78.3
9666;DHT22;4871;52.004;5.924;2023-02-28T04:04:00;2.4;78.3
9666;DHT22;4871;52.004;5.924;2023-02-28T04:05:00;2.4;78.3
9666;DHT22;4871;52.004;5.924;2023-02-28T04:06:00;2.4;78.1
9666;DHT22;4871;52.004;5.924;2023-02-28T04:07:03;2.4;78.3
9666;DHT22;4871;52.004;5.924;2023-02-28T04:08:04;2.4;78.1
9666;DHT22;4871;52.004;5.924;2023-02-28T04:09:01;2.4;78.3
9666;DHT22;4871;52.004;5.924;2023-02-28T04:10:00;2.4;78.2
9666;DHT22;4871;52.004;5.924;2023-02-28T04:11:03;2.4;78.2
9666;DHT22;4871;52.004;5.924;2023-02-28T04:12:00;2.4;78.3
9666;DHT22;4871;52.004;5.924;2023-02-28T04:13:00;2.4;78.2
9666;DHT22;4871;52.004;5.924;2023-02-28T04:14:00;2.4;78.3
9666;DHT22;4871;52.004;5.924;2023-02-28T04:15:00;2.4;78.4
9666;DHT22;4871;52.004;5.924;2023-02-28T04:16:00;2.4;78.3
9666;DHT22;4871;52.004;5.924;2023-02-28T04:17:03;2.4;78.3
9666;DHT22;4871;52.004;5.924;2023-02-28T04:18:00;2.4;78.3
9666;DHT22;4871;52.004;5.924;2023-02-28T04:19:06;2.4;78.3
9666;DHT22;4871;52.004;5.924;2023-02-28T04:20:00;2.4;78.3
9666;DHT22;4871;52.004;5.924;2023-02-28T04:21:00;2.4;78.4
9666;DHT22;4871;52.004;5.924;2023-02-28T04:22:00;2.4;78.4
9666;DHT22;4871;52.004;5.924;2023-02-28T04:23:00;2.4;78.4
9666;DHT22;4871;52.004;5.924;2023-02-28T04:24:03;2.4;78.3
9666;DHT22;4871;52.004;5.924;2023-02-28T04:25:00;2.4;78.3
9666;DHT22;4871;52.004;5.924;2023-02-28T04:26:02;2.4;78.4
9666;DHT22;4871;52.004;5.924;2023-02-28T04:27:00;2.4;78.2
9666;DHT22;4871;52.004;5.924;2023-02-28T04:28:00;2.4;78.2
9666;DHT22;4871;52.004;5.924;2023-02-28T04:29:02;2.4;78.2
9666;DHT22;4871;52.004;5.924;2023-02-28T04:30:00;2.4;78.5
9666;DHT22;4871;52.004;5.924;2023-02-28T04:31:02;2.4;78.3
9666;DHT22;4871;52.004;5.924;2023-02-28T04:32:01;2.4;78.3
9666;DHT22;4871;52.004;5.924;2023-02-28T04:33:00;2.4;78.2
9666;DHT22;4871;52.004;5.924;2023-02-28T04:34:02;2.4;78.3
9666;DHT22;4871;52.004;5.924;2023-02-28T04:35:00;2.4;78.4
9666;DHT22;4871;52.004;5.924;2023-02-28T04:36:02;2.4;78.4
9666;DHT22;4871;52.004;5.924;2023-02-28T04:37:01;2.4;78.4
9666;DHT22;4871;52.004;5.924;2023-02-28T04:38:00;2.4;78.4
9666;DHT22;4871;52.004;5.924;2023-02-28T04:39:00;2.4;78.3
9666;DHT22;4871;52.004;5.924;2023-02-28T04:40:00;2.4;78.3
9666;DHT22;4871;52.004;5.924;2023-02-28T04:41:00;2.4;78.4
9666;DHT22;4871;52.004;5.924;2023-02-28T04:42:00;2.4;78.4
9666;DHT22;4871;52.004;5.924;2023-02-28T04:43:00;2.4;78.4
9666;DHT22;4871;52.004;5.924;2023-02-28T04:44:00;2.4;78.3
9666;DHT22;4871;52.004;5.924;2023-02-28T04:45:00;2.4;78.4
9666;DHT22;4871;52.004;5.924;2023-02-28T04:46:02;2.4;78.3
9666;DHT22;4871;52.004;5.924;2023-02-28T04:47:00;2.4;78.3
9666;DHT22;4871;52.004;5.924;2023-02-28T04:48:00;2.4;78.3
9666;DHT22;4871;52.004;5.924;2023-02-28T04:49:00;2.4;78.4
9666;DHT22;4871;52.004;5.924;2023-02-28T04:50:00;2.4;78.4
9666;DHT22;4871;52.004;5.924;2023-02-28T04:51:01;2.4;78.4
9666;DHT22;4871;52.004;5.924;2023-02-28T04:52:00;2.4;78.3
9666;DHT22;4871;52.004;5.924;2023-02-28T04:53:00;2.4;78.4
9666;DHT22;4871;52.004;5.924;2023-02-28T04:54:00;2.4;78.4
9666;DHT22;4871;52.004;5.924;2023-02-28T04:55:00;2.4;78.4
9666;DHT22;4871;52.004;5.924;2023-02-28T04:56:01;2.4;78.4
9666;DHT22;4871;52.004;5.924;2023-02-28T04:57:01;2.4;78.4
9666;DHT22;4871;52.004;5.924;2023-02-28T04:58:00;2.4;78.3
9666;DHT22;4871;52.004;5.924;2023-02-28T04:59:00;2.4;78.3
9666;DHT22;4871;52.004;5.924;2023-02-28T05:00:11;2.4;78.3
9666;DHT22;4871;52.004;5.924;2023-02-28T05:01:03;2.4;78.3
9666;DHT22;4871;52.004;5.924;2023-02-28T05:02:00;2.4;78.3
9666;DHT22;4871;52.004;5.924;2023-02-28T05:03:00;2.4;78.4
9666;DHT22;4871;52.004;5.924;2023-02-28T05:04:02;2.4;78.3
9666;DHT22;4871;52.004;5.924;2023-02-28T05:05:00;2.4;78.5
9666;DHT22;4871;52.004;5.924;2023-02-28T05:06:00;2.4;78.5
9666;DHT22;4871;52.004;5.924;2023-02-28T05:07:00;2.4;78.3
9666;DHT22;4871;52.004;5.924;2023-02-28T05:08:00;2.4;78.4
9666;DHT22;4871;52.004;5.924;2023-02-28T05:09:01;2.4;78.4
9666;DHT22;4871;52.004;5.924;2023-02-28T05:10:00;2.4;78.5
9666;DHT22;4871;52.004;5.924;2023-02-28T05:11:02;2.4;78.3
9666;DHT22;4871;52.004;5.924;2023-02-28T05:12:00;2.4;78.2
9666;DHT22;4871;52.004;5.924;2023-02-28T05:13:00;2.4;78.5
9666;DHT22;4871;52.004;5.924;2023-02-28T05:14:01;2.4;78.5
9666;DHT22;4871;52.004;5.924;2023-02-28T05:15:02;2.4;78.4
9666;DHT22;4871;52.004;5.924;2023-02-28T05:16:00;2.3;78.4
9666;DHT22;4871;52.004;5.924;2023-02-28T05:17:00;2.3;78.5
9666;DHT22;4871;52.004;5.924;2023-02-28T05:18:00;2.3;78.6
9666;DHT22;4871;52.004;5.924;2023-02-28T05:19:00;2.3;78.5
9666;DHT22;4871;52.004;5.924;2023-02-28T05:20:00;2.3;78.4
9666;DHT22;4871;52.004;5.924;2023-02-28T05:21:02;2.3;78.4
9666;DHT22;4871;52.004;5.924;2023-02-28T05:22:00;2.4;78.6
9666;DHT22;4871;52.004;5.924;2023-02-28T05:23:01;2.3;78.6
9666;DHT22;4871;52.004;5.924;2023-02-28T05:24:01;2.3;78.5
9666;DHT22;4871;52.004;5.924;2023-02-28T05:25:00;2.3;78.5
9666;DHT22;4871;52.004;5.924;2023-02-28T05:26:00;2.3;78.4
9666;DHT22;4871;52.004;5.924;2023-02-28T05:27:00;2.4;78.4
9666;DHT22;4871;52.004;5.924;2023-02-28T05:28:00;2.4;78.5
9666;DHT22;4871;52.004;5.924;2023-02-28T05:29:00;2.3;78.4
9666;DHT22;4871;52.004;5.924;2023-02-28T05:30:04;2.3;78.6
9666;DHT22;4871;52.004;5.924;2023-02-28T05:31:00;2.3;78.4
9666;DHT22;4871;52.004;5.924;2023-02-28T05:32:00;2.3;78.5
9666;DHT22;4871;52.004;5.924;2023-02-28T05:33:00;2.3;78.4
9666;DHT22;4871;52.004;5.924;2023-02-28T05:34:00;2.3;78.5
9666;DHT22;4871;52.004;5.924;2023-02-28T05:35:00;2.3;78.5
9666;DHT22;4871;52.004;5.924;2023-02-28T05:36:00;2.3;78.5
9666;DHT22;4871;52.004;5.924;2023-02-28T05:37:00;2.3;78.5
9666;DHT22;4871;52.004;5.924;2023-02-28T05:38:00;2.3;78.5
9666;DHT22;4871;52.004;5.924;2023-02-28T05:39:00;2.3;78.5
9666;DHT22;4871;52.004;5.924;2023-02-28T05:40:00;2.4;78.5
9666;DHT22;4871;52.004;5.924;2023-02-28T05:41:05;2.3;78.5
9666;DHT22;4871;52.004;5.924;2023-02-28T05:42:00;2.4;78.5
9666;DHT22;4871;52.004;5.924;2023-02-28T05:43:00;2.3;78.5
9666;DHT22;4871;52.004;5.924;2023-02-28T05:44:00;2.4;78.3
9666;DHT22;4871;52.004;5.924;2023-02-28T05:45:00;2.4;78.3
9666;DHT22;4871;52.004;5.924;2023-02-28T05:46:02;2.3;78.5
9666;DHT22;4871;52.004;5.924;2023-02-28T05:47:00;2.3;78.5
9666;DHT22;4871;52.004;5.924;2023-02-28T05:48:00;2.3;78.6
9666;DHT22;4871;52.004;5.924;2023-02-28T05:49:01;2.3;78.5
9666;DHT22;4871;52.004;5.924;2023-02-28T05:50:01;2.3;78.5
9666;DHT22;4871;52.004;5.924;2023-02-28T05:51:00;2.3;78.6
9666;DHT22;4871;52.004;5.924;2023-02-28T05:52:00;2.3;78.4
9666;DHT22;4871;52.004;5.924;2023-02-28T05:53:00;2.4;78.3
9666;DHT22;4871;52.004;5.924;2023-02-28T05:54:01;2.3;78.5
9666;DHT22;4871;52.004;5.924;2023-02-28T05:55:00;2.3;78.4
9666;DHT22;4871;52.004;5.924;2023-02-28T05:56:00;2.3;78.5
9666;DHT22;4871;52.004;5.924;2023-02-28T05:57:00;2.3;78.5
9666;DHT22;4871;52.004;5.924;2023-02-28T05:58:00;2.3;78.4
9666;DHT22;4871;52.004;5.924;2023-02-28T05:59:00;2.3;78.5
9666;DHT22;4871;52.004;5.924;2023-02-28T06:00:00;2.3;78.5
9666;DHT22;4871;52.004;5.924;2023-02-28T06:01:19;2.3;78.5
9666;DHT22;4871;52.004;5.924;2023-02-28T06:02:00;2.3;78.7
9666;DHT22;4871;52.004;5.924;2023-02-28T06:03:02;2.3;78.5
9666;DHT22;4871;52.004;5.924;2023-02-28T06:04:02;2.3;78.7
9666;DHT22;4871;52.004;5.924;2023-02-28T06:05:00;2.3;78.6
9666;DHT22;4871;52.004;5.924;2023-02-28T06:06:00;2.3;78.5
9666;DHT22;4871;52.004;5.924;2023-02-28T06:07:01;2.3;78.5
9666;DHT22;4871;52.004;5.924;2023-02-28T06:08:00;2.3;78.6
9666;DHT22;4871;52.004;5.924;2023-02-28T06:09:01;2.3;78.5
9666;DHT22;4871;52.004;5.924;2023-02-28T06:10:00;2.3;78.6
9666;DHT22;4871;52.004;5.924;2023-02-28T06:11:02;2.3;78.5
9666;DHT22;4871;52.004;5.924;2023-02-28T06:12:02;2.3;78.5
9666;DHT22;4871;52.004;5.924;2023-02-28T06:13:03;2.3;78.5
9666;DHT22;4871;52.004;5.924;2023-02-28T06:14:01;2.3;78.7
9666;DHT22;4871;52.004;5.924;2023-02-28T06:15:00;2.3;78.7
9666;DHT22;4871;52.004;5.924;2023-02-28T06:16:00;2.3;78.5
9666;DHT22;4871;52.004;5.924;2023-02-28T06:17:00;2.3;78.5
9666;DHT22;4871;52.004;5.924;2023-02-28T06:18:00;2.3;78.6
9666;DHT22;4871;52.004;5.924;2023-02-28T06:19:02;2.3;78.6
9666;DHT22;4871;52.004;5.924;2023-02-28T06:20:00;2.3;78.6
9666;DHT22;4871;52.004;5.924;2023-02-28T06:21:00;2.3;78.6
9666;DHT22;4871;52.004;5.924;2023-02-28T06:22:00;2.3;78.5
9666;DHT22;4871;52.004;5.924;2023-02-28T06:23:00;2.3;78.6
9666;DHT22;4871;52.004;5.924;2023-02-28T06:24:00;2.3;78.6
9666;DHT22;4871;52.004;5.924;2023-02-28T06:25:00;2.3;78.7
9666;DHT22;4871;52.004;5.924;2023-02-28T06:26:00;2.3;78.6
9666;DHT22;4871;52.004;5.924;2023-02-28T06:27:04;2.3;78.6
9666;DHT22;4871;52.004;5.924;2023-02-28T06:28:00;2.3;78.5
9666;DHT22;4871;52.004;5.924;2023-02-28T06:29:00;2.3;78.6
9666;DHT22;4871;52.004;5.924;2023-02-28T06:30:00;2.3;78.6
9666;DHT22;4871;52.004;5.924;2023-02-28T06:31:12;2.3;78.7
9666;DHT22;4871;52.004;5.924;2023-02-28T06:32:00;2.3;78.4
9666;DHT22;4871;52.004;5.924;2023-02-28T06:33:00;2.3;78.4
9666;DHT22;4871;52.004;5.924;2023-02-28T06:34:00;2.3;78.6
9666;DHT22;4871;52.004;5.924;2023-02-28T06:35:00;2.3;78.5
9666;DHT22;4871;52.004;5.924;2023-02-28T06:36:00;2.3;78.4
9666;DHT22;4871;52.004;5.924;2023-02-28T06:37:02;2.3;78.5
9666;DHT22;4871;52.004;5.924;2023-02-28T06:38:00;2.4;78.5
9666;DHT22;4871;52.004;5.924;2023-02-28T06:39:00;2.3;78.5
9666;DHT22;4871;52.004;5.924;2023-02-28T06:40:00;2.4;78.6
9666;DHT22;4871;52.004;5.924;2023-02-28T06:41:03;2.4;78.6
9666;DHT22;4871;52.004;5.924;2023-02-28T06:42:00;2.4;78.4
9666;DHT22;4871;52.004;5.924;2023-02-28T06:43:00;2.4;78.4
9666;DHT22;4871;52.004;5.924;2023-02-28T06:44:00;2.4;78.4
9666;DHT22;4871;52.004;5.924;2023-02-28T06:45:03;2.4;78.6
9666;DHT22;4871;52.004;5.924;2023-02-28T06:46:01;2.4;78.5
9666;DHT22;4871;52.004;5.924;2023-02-28T06:47:01;2.4;78.5
9666;DHT22;4871;52.004;5.924;2023-02-28T06:48:00;2.4;78.5
9666;DHT22;4871;52.004;5.924;2023-02-28T06:49:03;2.4;78.4
9666;DHT22;4871;52.004;5.924;2023-02-28T06:50:02;2.4;78.5
9666;DHT22;4871;52.004;5.924;2023-02-28T06:51:03;2.4;78.3
9666;DHT22;4871;52.004;5.924;2023-02-28T06:52:00;2.4;78.3
9666;DHT22;4871;52.004;5.924;2023-02-28T06:53:00;2.4;78.4
9666;DHT22;4871;52.004;5.924;2023-02-28T06:54:00;2.5;78.4
9666;DHT22;4871;52.004;5.924;2023-02-28T06:55:00;2.5;78.4
9666;DHT22;4871;52.004;5.924;2023-02-28T06:56:04;2.5;78.3